sensor_id;sensor_type;location;lat;lon;timestamp;P1;durP1;ratioP1;P2;durP2;ratioP2
16460;SDS011;8341;42.048;24.650;2022-09-09T00:02:04;4.90;;;4.45;;
16460;SDS011;8341;42.048;24.650;2022-09-09T00:04:43;4.90;;;4.10;;
16460;SDS011;8341;42.048;24.650;2022-09-09T00:07:15;6.15;;;4.07;;
16460;SDS011;8341;42.048;24.650;2022-09-09T00:09:48;5.35;;;4.30;;
16460;SDS011;8341;42.048;24.650;2022-09-09T00:12:27;5.10;;;4.60;;
16460;SDS011;8341;42.048;24.650;2022-09-09T00:15:06;6.22;;;4.55;;
16460;SDS011;8341;42.048;24.650;2022-09-09T00:17:39;5.35;;;4.53;;
16460;SDS011;8341;42.048;24.650;2022-09-09T00:20:14;5.90;;;4.75;;
16460;SDS011;8341;42.048;24.650;2022-09-09T00:22:50;4.65;;;4.25;;
16460;SDS011;8341;42.048;24.650;2022-09-09T00:25:26;4.45;;;4.03;;
16460;SDS011;8341;42.048;24.650;2022-09-09T00:27:59;4.57;;;4.18;;
16460;SDS011;8341;42.048;24.650;2022-09-09T00:30:29;4.97;;;4.38;;
16460;SDS011;8341;42.048;24.650;2022-09-09T00:33:01;6.32;;;4.45;;
16460;SDS011;8341;42.048;24.650;2022-09-09T00:35:41;4.72;;;4.32;;
16460;SDS011;8341;42.048;24.650;2022-09-09T00:38:12;6.00;;;4.70;;
16460;SDS011;8341;42.048;24.650;2022-09-09T00:40:44;6.72;;;4.40;;
16460;SDS011;8341;42.048;24.650;2022-09-09T00:43:24;5.20;;;4.75;;
16460;SDS011;8341;42.048;24.650;2022-09-09T00:46:08;5.60;;;4.72;;
16460;SDS011;8341;42.048;24.650;2022-09-09T00:48:51;5.55;;;5.00;;
16460;SDS011;8341;42.048;24.650;2022-09-09T00:51:26;5.68;;;4.72;;
16460;SDS011;8341;42.048;24.650;2022-09-09T00:54:22;5.47;;;4.95;;
16460;SDS011;8341;42.048;24.650;2022-09-09T00:57:13;5.80;;;5.25;;
16460;SDS011;8341;42.048;24.650;2022-09-09T00:59:48;6.13;;;5.50;;
16460;SDS011;8341;42.048;24.650;2022-09-09T01:02:21;5.55;;;5.05;;
16460;SDS011;8341;42.048;24.650;2022-09-09T01:04:55;5.22;;;4.72;;
16460;SDS011;8341;42.048;24.650;2022-09-09T01:07:28;5.68;;;5.20;;
16460;SDS011;8341;42.048;24.650;2022-09-09T01:09:55;5.32;;;4.78;;
16460;SDS011;8341;42.048;24.650;2022-09-09T01:12:26;6.75;;;4.78;;
16460;SDS011;8341;42.048;24.650;2022-09-09T01:15:02;4.70;;;4.30;;
16460;SDS011;8341;42.048;24.650;2022-09-09T01:17:39;5.32;;;4.53;;
16460;SDS011;8341;42.048;24.650;2022-09-09T01:20:17;5.47;;;5.07;;
16460;SDS011;8341;42.048;24.650;2022-09-09T01:22:50;5.53;;;5.00;;
16460;SDS011;8341;42.048;24.650;2022-09-09T01:28:46;5.15;;;4.75;;
16460;SDS011;8341;42.048;24.650;2022-09-09T01:31:16;6.20;;;5.00;;
16460;SDS011;8341;42.048;24.650;2022-09-09T01:33:46;6.45;;;5.25;;
16460;SDS011;8341;42.048;24.650;2022-09-09T01:36:15;5.63;;;5.10;;
16460;SDS011;8341;42.048;24.650;2022-09-09T01:38:47;5.53;;;5.03;;
16460;SDS011;8341;42.048;24.650;2022-09-09T01:41:15;5.50;;;5.03;;
16460;SDS011;8341;42.048;24.650;2022-09-09T01:43:42;9.27;;;5.25;;
16460;SDS011;8341;42.048;24.650;2022-09-09T01:46:10;6.35;;;5.15;;
16460;SDS011;8341;42.048;24.650;2022-09-09T01:48:38;6.07;;;5.47;;
16460;SDS011;8341;42.048;24.650;2022-09-09T01:51:08;8.55;;;5.43;;
16460;SDS011;8341;42.048;24.650;2022-09-09T01:53:35;5.50;;;5.00;;
16460;SDS011;8341;42.048;24.650;2022-09-09T01:56:08;5.63;;;5.13;;
16460;SDS011;8341;42.048;24.650;2022-09-09T01:58:47;6.30;;;5.75;;
16460;SDS011;8341;42.048;24.650;2022-09-09T02:01:27;6.47;;;5.40;;
16460;SDS011;8341;42.048;24.650;2022-09-09T02:04:08;6.22;;;5.57;;
16460;SDS011;8341;42.048;24.650;2022-09-09T02:06:45;5.72;;;5.22;;
16460;SDS011;8341;42.048;24.650;2022-09-09T02:09:14;5.85;;;5.25;;
16460;SDS011;8341;42.048;24.650;2022-09-09T02:11:45;6.50;;;5.78;;
16460;SDS011;8341;42.048;24.650;2022-09-09T02:14:18;6.32;;;5.82;;
16460;SDS011;8341;42.048;24.650;2022-09-09T02:16:54;6.18;;;5.68;;
16460;SDS011;8341;42.048;24.650;2022-09-09T02:19:25;6.45;;;5.85;;
16460;SDS011;8341;42.048;24.650;2022-09-09T02:21:56;6.05;;;5.50;;
16460;SDS011;8341;42.048;24.650;2022-09-09T02:24:26;6.40;;;5.88;;
16460;SDS011;8341;42.048;24.650;2022-09-09T02:26:55;6.13;;;5.53;;
16460;SDS011;8341;42.048;24.650;2022-09-09T02:29:26;6.55;;;5.95;;
16460;SDS011;8341;42.048;24.650;2022-09-09T02:31:59;6.72;;;6.13;;
16460;SDS011;8341;42.048;24.650;2022-09-09T02:34:30;6.68;;;6.00;;
16460;SDS011;8341;42.048;24.650;2022-09-09T02:37:01;7.95;;;6.32;;
16460;SDS011;8341;42.048;24.650;2022-09-09T02:39:32;7.18;;;6.60;;
16460;SDS011;8341;42.048;24.650;2022-09-09T02:41:59;7.13;;;6.43;;
16460;SDS011;8341;42.048;24.650;2022-09-09T02:44:26;7.45;;;6.72;;
16460;SDS011;8341;42.048;24.650;2022-09-09T02:47:03;6.70;;;6.05;;
16460;SDS011;8341;42.048;24.650;2022-09-09T02:49:46;7.60;;;6.90;;
16460;SDS011;8341;42.048;24.650;2022-09-09T02:52:25;8.15;;;6.90;;
16460;SDS011;8341;42.048;24.650;2022-09-09T02:54:59;7.80;;;7.10;;
16460;SDS011;8341;42.048;24.650;2022-09-09T02:57:33;7.78;;;7.07;;
16460;SDS011;8341;42.048;24.650;2022-09-09T03:00:02;8.15;;;7.40;;
16460;SDS011;8341;42.048;24.650;2022-09-09T03:02:31;9.00;;;7.05;;
16460;SDS011;8341;42.048;24.650;2022-09-09T03:04:58;7.22;;;6.60;;
16460;SDS011;8341;42.048;24.650;2022-09-09T03:07:25;7.93;;;6.72;;
16460;SDS011;8341;42.048;24.650;2022-09-09T03:09:52;7.38;;;6.68;;
16460;SDS011;8341;42.048;24.650;2022-09-09T03:12:20;7.85;;;7.00;;
16460;SDS011;8341;42.048;24.650;2022-09-09T03:14:47;6.70;;;6.03;;
16460;SDS011;8341;42.048;24.650;2022-09-09T03:17:14;7.00;;;6.30;;
16460;SDS011;8341;42.048;24.650;2022-09-09T03:19:42;7.63;;;7.00;;
16460;SDS011;8341;42.048;24.650;2022-09-09T03:22:09;8.20;;;6.88;;
16460;SDS011;8341;42.048;24.650;2022-09-09T03:24:38;9.40;;;6.80;;
16460;SDS011;8341;42.048;24.650;2022-09-09T03:27:05;9.90;;;6.75;;
16460;SDS011;8341;42.048;24.650;2022-09-09T03:29:32;7.97;;;6.78;;
16460;SDS011;8341;42.048;24.650;2022-09-09T03:31:59;7.45;;;6.78;;
16460;SDS011;8341;42.048;24.650;2022-09-09T03:34:26;6.80;;;6.22;;
16460;SDS011;8341;42.048;24.650;2022-09-09T03:36:55;8.50;;;7.35;;
16460;SDS011;8341;42.048;24.650;2022-09-09T03:39:22;8.20;;;7.30;;
16460;SDS011;8341;42.048;24.650;2022-09-09T03:41:49;6.82;;;6.32;;
16460;SDS011;8341;42.048;24.650;2022-09-09T03:44:16;7.95;;;7.15;;
16460;SDS011;8341;42.048;24.650;2022-09-09T03:46:43;7.38;;;6.70;;
16460;SDS011;8341;42.048;24.650;2022-09-09T03:49:10;7.25;;;6.60;;
16460;SDS011;8341;42.048;24.650;2022-09-09T03:51:37;9.80;;;7.82;;
16460;SDS011;8341;42.048;24.650;2022-09-09T03:54:05;8.25;;;7.63;;
16460;SDS011;8341;42.048;24.650;2022-09-09T03:56:35;8.30;;;7.60;;
16460;SDS011;8341;42.048;24.650;2022-09-09T03:59:02;8.18;;;7.30;;
16460;SDS011;8341;42.048;24.650;2022-09-09T04:01:30;9.13;;;7.20;;
16460;SDS011;8341;42.048;24.650;2022-09-09T04:03:57;8.18;;;7.38;;
16460;SDS011;8341;42.048;24.650;2022-09-09T04:06:24;8.73;;;7.85;;
16460;SDS011;8341;42.048;24.650;2022-09-09T04:08:51;7.85;;;7.15;;
16460;SDS011;8341;42.048;24.650;2022-09-09T04:11:20;7.78;;;7.07;;
16460;SDS011;8341;42.048;24.650;2022-09-09T04:13:47;8.18;;;7.38;;
16460;SDS011;8341;42.048;24.650;2022-09-09T04:16:14;19.48;;;13.65;;
16460;SDS011;8341;42.048;24.650;2022-09-09T04:18:42;11.88;;;10.23;;
16460;SDS011;8341;42.048;24.650;2022-09-09T04:21:09;18.73;;;15.52;;
16460;SDS011;8341;42.048;24.650;2022-09-09T04:23:37;23.85;;;17.73;;
16460;SDS011;8341;42.048;24.650;2022-09-09T04:26:05;21.48;;;17.30;;
16460;SDS011;8341;42.048;24.650;2022-09-09T04:28:35;8.65;;;7.75;;
16460;SDS011;8341;42.048;24.650;2022-09-09T04:31:07;10.13;;;7.95;;
16460;SDS011;8341;42.048;24.650;2022-09-09T04:33:36;8.43;;;7.63;;
16460;SDS011;8341;42.048;24.650;2022-09-09T04:36:04;9.45;;;8.48;;
16460;SDS011;8341;42.048;24.650;2022-09-09T04:38:32;23.05;;;18.73;;
16460;SDS011;8341;42.048;24.650;2022-09-09T04:40:59;37.53;;;27.45;;
16460;SDS011;8341;42.048;24.650;2022-09-09T04:43:26;44.28;;;34.50;;
16460;SDS011;8341;42.048;24.650;2022-09-09T04:45:55;36.63;;;30.38;;
16460;SDS011;8341;42.048;24.650;2022-09-09T04:48:22;32.38;;;24.90;;
16460;SDS011;8341;42.048;24.650;2022-09-09T04:50:56;29.85;;;12.07;;
16460;SDS011;8341;42.048;24.650;2022-09-09T05:09:09;21.85;;;17.65;;
16460;SDS011;8341;42.048;24.650;2022-09-09T05:11:36;22.25;;;18.98;;
16460;SDS011;8341;42.048;24.650;2022-09-09T05:14:03;22.50;;;19.05;;
16460;SDS011;8341;42.048;24.650;2022-09-09T05:16:31;15.57;;;13.30;;
16460;SDS011;8341;42.048;24.650;2022-09-09T05:18:58;13.00;;;11.63;;
16460;SDS011;8341;42.048;24.650;2022-09-09T05:21:25;9.10;;;8.30;;
16460;SDS011;8341;42.048;24.650;2022-09-09T05:23:53;8.95;;;8.15;;
16460;SDS011;8341;42.048;24.650;2022-09-09T05:26:22;8.73;;;7.93;;
16460;SDS011;8341;42.048;24.650;2022-09-09T05:28:49;9.98;;;8.98;;
16460;SDS011;8341;42.048;24.650;2022-09-09T05:31:16;11.25;;;9.80;;
16460;SDS011;8341;42.048;24.650;2022-09-09T05:33:45;14.40;;;9.65;;
16460;SDS011;8341;42.048;24.650;2022-09-09T05:36:15;24.25;;;20.27;;
16460;SDS011;8341;42.048;24.650;2022-09-09T05:38:43;13.80;;;9.93;;
16460;SDS011;8341;42.048;24.650;2022-09-09T05:41:10;9.70;;;8.70;;
16460;SDS011;8341;42.048;24.650;2022-09-09T05:43:42;12.15;;;9.30;;
16460;SDS011;8341;42.048;24.650;2022-09-09T05:46:12;12.98;;;9.75;;
16460;SDS011;8341;42.048;24.650;2022-09-09T05:48:40;12.60;;;9.73;;
16460;SDS011;8341;42.048;24.650;2022-09-09T05:51:09;10.98;;;9.98;;
16460;SDS011;8341;42.048;24.650;2022-09-09T05:53:37;11.80;;;9.13;;
16460;SDS011;8341;42.048;24.650;2022-09-09T05:56:05;10.30;;;8.57;;
16460;SDS011;8341;42.048;24.650;2022-09-09T05:58:35;8.90;;;8.20;;
16460;SDS011;8341;42.048;24.650;2022-09-09T06:01:05;8.93;;;8.07;;
16460;SDS011;8341;42.048;24.650;2022-09-09T06:03:35;9.10;;;8.20;;
16460;SDS011;8341;42.048;24.650;2022-09-09T06:06:03;9.30;;;8.45;;
16460;SDS011;8341;42.048;24.650;2022-09-09T06:08:32;12.50;;;9.00;;
16460;SDS011;8341;42.048;24.650;2022-09-09T06:11:02;14.60;;;8.93;;
16460;SDS011;8341;42.048;24.650;2022-09-09T06:13:31;9.65;;;8.48;;
16460;SDS011;8341;42.048;24.650;2022-09-09T06:15:58;12.98;;;8.45;;
16460;SDS011;8341;42.048;24.650;2022-09-09T06:18:27;9.90;;;8.93;;
16460;SDS011;8341;42.048;24.650;2022-09-09T06:20:55;10.63;;;9.32;;
16460;SDS011;8341;42.048;24.650;2022-09-09T06:23:23;10.55;;;9.18;;
16460;SDS011;8341;42.048;24.650;2022-09-09T06:25:51;10.73;;;9.80;;
16460;SDS011;8341;42.048;24.650;2022-09-09T06:28:18;10.60;;;9.60;;
16460;SDS011;8341;42.048;24.650;2022-09-09T06:30:45;10.27;;;9.32;;
16460;SDS011;8341;42.048;24.650;2022-09-09T06:33:12;11.15;;;8.75;;
16460;SDS011;8341;42.048;24.650;2022-09-09T06:35:41;9.90;;;8.88;;
16460;SDS011;8341;42.048;24.650;2022-09-09T06:38:08;10.57;;;8.23;;
16460;SDS011;8341;42.048;24.650;2022-09-09T06:40:35;9.60;;;8.75;;
16460;SDS011;8341;42.048;24.650;2022-09-09T06:43:02;10.13;;;9.15;;
16460;SDS011;8341;42.048;24.650;2022-09-09T06:45:30;9.38;;;8.10;;
16460;SDS011;8341;42.048;24.650;2022-09-09T06:47:57;9.02;;;8.13;;
16460;SDS011;8341;42.048;24.650;2022-09-09T06:50:24;8.98;;;8.20;;
16460;SDS011;8341;42.048;24.650;2022-09-09T06:52:52;11.05;;;8.55;;
16460;SDS011;8341;42.048;24.650;2022-09-09T06:55:19;9.00;;;8.10;;
16460;SDS011;8341;42.048;24.650;2022-09-09T06:57:46;8.75;;;7.90;;
16460;SDS011;8341;42.048;24.650;2022-09-09T07:00:13;8.77;;;7.97;;
16460;SDS011;8341;42.048;24.650;2022-09-09T07:02:42;8.68;;;7.88;;
16460;SDS011;8341;42.048;24.650;2022-09-09T07:05:09;10.20;;;8.18;;
16460;SDS011;8341;42.048;24.650;2022-09-09T07:07:37;9.13;;;7.88;;
16460;SDS011;8341;42.048;24.650;2022-09-09T07:10:05;9.40;;;8.23;;
16460;SDS011;8341;42.048;24.650;2022-09-09T07:12:33;9.05;;;8.05;;
16460;SDS011;8341;42.048;24.650;2022-09-09T07:15:00;9.30;;;8.40;;
16460;SDS011;8341;42.048;24.650;2022-09-09T07:17:27;9.10;;;8.20;;
16460;SDS011;8341;42.048;24.650;2022-09-09T07:19:54;9.07;;;7.80;;
16460;SDS011;8341;42.048;24.650;2022-09-09T07:22:22;8.35;;;7.38;;
16460;SDS011;8341;42.048;24.650;2022-09-09T07:24:50;11.55;;;8.15;;
16460;SDS011;8341;42.048;24.650;2022-09-09T07:27:18;10.48;;;7.93;;
16460;SDS011;8341;42.048;24.650;2022-09-09T07:29:46;11.77;;;7.38;;
16460;SDS011;8341;42.048;24.650;2022-09-09T07:32:13;8.85;;;7.30;;
16460;SDS011;8341;42.048;24.650;2022-09-09T07:34:41;8.73;;;6.82;;
16460;SDS011;8341;42.048;24.650;2022-09-09T07:37:08;8.90;;;7.30;;
16460;SDS011;8341;42.048;24.650;2022-09-09T07:39:36;9.13;;;6.38;;
16460;SDS011;8341;42.048;24.650;2022-09-09T07:42:04;7.82;;;6.50;;
16460;SDS011;8341;42.048;24.650;2022-09-09T07:44:33;7.18;;;6.32;;
16460;SDS011;8341;42.048;24.650;2022-09-09T07:47:01;8.02;;;6.93;;
16460;SDS011;8341;42.048;24.650;2022-09-09T07:49:29;8.65;;;6.57;;
16460;SDS011;8341;42.048;24.650;2022-09-09T07:51:56;11.40;;;7.32;;
16460;SDS011;8341;42.048;24.650;2022-09-09T07:54:24;7.65;;;6.90;;
16460;SDS011;8341;42.048;24.650;2022-09-09T07:56:51;7.10;;;6.40;;
16460;SDS011;8341;42.048;24.650;2022-09-09T07:59:19;10.90;;;6.75;;
16460;SDS011;8341;42.048;24.650;2022-09-09T08:01:48;6.75;;;6.15;;
16460;SDS011;8341;42.048;24.650;2022-09-09T08:04:18;11.35;;;6.68;;
16460;SDS011;8341;42.048;24.650;2022-09-09T08:06:47;7.18;;;6.47;;
16460;SDS011;8341;42.048;24.650;2022-09-09T08:09:18;8.38;;;6.25;;
16460;SDS011;8341;42.048;24.650;2022-09-09T08:11:45;7.22;;;6.05;;
16460;SDS011;8341;42.048;24.650;2022-09-09T08:14:13;8.60;;;6.78;;
16460;SDS011;8341;42.048;24.650;2022-09-09T08:16:41;8.18;;;6.97;;
16460;SDS011;8341;42.048;24.650;2022-09-09T08:19:11;7.70;;;6.90;;
16460;SDS011;8341;42.048;24.650;2022-09-09T08:21:41;8.98;;;6.90;;
16460;SDS011;8341;42.048;24.650;2022-09-09T08:24:10;8.50;;;7.03;;
16460;SDS011;8341;42.048;24.650;2022-09-09T08:26:39;7.82;;;7.03;;
16460;SDS011;8341;42.048;24.650;2022-09-09T08:29:08;7.55;;;6.85;;
16460;SDS011;8341;42.048;24.650;2022-09-09T08:31:38;8.27;;;7.13;;
16460;SDS011;8341;42.048;24.650;2022-09-09T08:34:06;8.13;;;7.38;;
16460;SDS011;8341;42.048;24.650;2022-09-09T08:36:36;7.35;;;6.65;;
16460;SDS011;8341;42.048;24.650;2022-09-09T08:39:04;8.95;;;7.05;;
16460;SDS011;8341;42.048;24.650;2022-09-09T08:41:41;10.93;;;7.20;;
16460;SDS011;8341;42.048;24.650;2022-09-09T08:44:28;10.25;;;7.05;;
16460;SDS011;8341;42.048;24.650;2022-09-09T08:47:06;12.07;;;6.82;;
16460;SDS011;8341;42.048;24.650;2022-09-09T08:49:50;7.65;;;6.85;;
16460;SDS011;8341;42.048;24.650;2022-09-09T08:52:30;8.32;;;7.57;;
16460;SDS011;8341;42.048;24.650;2022-09-09T08:55:02;9.60;;;7.60;;
16460;SDS011;8341;42.048;24.650;2022-09-09T08:57:38;10.65;;;7.55;;
16460;SDS011;8341;42.048;24.650;2022-09-09T09:00:07;8.23;;;7.53;;
16460;SDS011;8341;42.048;24.650;2022-09-09T09:02:38;8.75;;;7.35;;
16460;SDS011;8341;42.048;24.650;2022-09-09T09:05:17;9.43;;;7.78;;
16460;SDS011;8341;42.048;24.650;2022-09-09T09:07:55;8.45;;;7.45;;
16460;SDS011;8341;42.048;24.650;2022-09-09T09:10:31;8.32;;;7.53;;
16460;SDS011;8341;42.048;24.650;2022-09-09T09:13:10;8.75;;;7.78;;
16460;SDS011;8341;42.048;24.650;2022-09-09T09:15:41;10.05;;;7.38;;
16460;SDS011;8341;42.048;24.650;2022-09-09T09:18:10;8.35;;;7.47;;
16460;SDS011;8341;42.048;24.650;2022-09-09T09:20:42;8.50;;;7.72;;
16460;SDS011;8341;42.048;24.650;2022-09-09T09:23:21;8.50;;;7.70;;
16460;SDS011;8341;42.048;24.650;2022-09-09T09:25:49;9.43;;;7.82;;
16460;SDS011;8341;42.048;24.650;2022-09-09T09:28:20;9.40;;;7.75;;
16460;SDS011;8341;42.048;24.650;2022-09-09T09:30:51;9.70;;;7.60;;
16460;SDS011;8341;42.048;24.650;2022-09-09T09:33:23;8.93;;;7.80;;
16460;SDS011;8341;42.048;24.650;2022-09-09T09:35:55;8.05;;;7.35;;
16460;SDS011;8341;42.048;24.650;2022-09-09T09:38:26;9.23;;;7.75;;
16460;SDS011;8341;42.048;24.650;2022-09-09T09:40:55;8.93;;;8.05;;
16460;SDS011;8341;42.048;24.650;2022-09-09T09:43:25;10.20;;;7.60;;
16460;SDS011;8341;42.048;24.650;2022-09-09T09:45:54;10.98;;;8.25;;
16460;SDS011;8341;42.048;24.650;2022-09-09T09:48:23;8.52;;;7.18;;
16460;SDS011;8341;42.048;24.650;2022-09-09T09:50:50;9.80;;;7.75;;
16460;SDS011;8341;42.048;24.650;2022-09-09T09:53:21;8.48;;;7.68;;
16460;SDS011;8341;42.048;24.650;2022-09-09T09:55:54;9.45;;;8.55;;
16460;SDS011;8341;42.048;24.650;2022-09-09T09:58:24;9.32;;;8.30;;
16460;SDS011;8341;42.048;24.650;2022-09-09T10:00:53;10.15;;;8.23;;
16460;SDS011;8341;42.048;24.650;2022-09-09T10:03:24;9.18;;;8.23;;
16460;SDS011;8341;42.048;24.650;2022-09-09T10:05:53;9.02;;;8.13;;
16460;SDS011;8341;42.048;24.650;2022-09-09T10:08:21;8.85;;;7.97;;
16460;SDS011;8341;42.048;24.650;2022-09-09T10:10:56;10.35;;;7.72;;
16460;SDS011;8341;42.048;24.650;2022-09-09T10:13:44;12.90;;;8.82;;
16460;SDS011;8341;42.048;24.650;2022-09-09T10:16:23;15.70;;;8.30;;
16460;SDS011;8341;42.048;24.650;2022-09-09T10:19:01;11.60;;;8.43;;
16460;SDS011;8341;42.048;24.650;2022-09-09T10:24:41;8.65;;;7.85;;
16460;SDS011;8341;42.048;24.650;2022-09-09T10:27:29;8.82;;;8.00;;
16460;SDS011;8341;42.048;24.650;2022-09-09T10:30:08;9.38;;;8.50;;
16460;SDS011;8341;42.048;24.650;2022-09-09T10:32:47;17.42;;;15.35;;
16460;SDS011;8341;42.048;24.650;2022-09-09T10:38:14;9.77;;;8.65;;
16460;SDS011;8341;42.048;24.650;2022-09-09T10:40:46;9.68;;;8.68;;
16460;SDS011;8341;42.048;24.650;2022-09-09T10:43:32;10.13;;;8.45;;
16460;SDS011;8341;42.048;24.650;2022-09-09T10:46:13;10.40;;;8.55;;
16460;SDS011;8341;42.048;24.650;2022-09-09T10:48:53;11.57;;;9.20;;
16460;SDS011;8341;42.048;24.650;2022-09-09T10:51:33;11.38;;;10.27;;
16460;SDS011;8341;42.048;24.650;2022-09-09T10:54:13;13.20;;;11.85;;
16460;SDS011;8341;42.048;24.650;2022-09-09T10:56:52;15.52;;;10.55;;
16460;SDS011;8341;42.048;24.650;2022-09-09T10:59:24;16.23;;;11.20;;
16460;SDS011;8341;42.048;24.650;2022-09-09T11:01:56;11.43;;;10.30;;
16460;SDS011;8341;42.048;24.650;2022-09-09T11:04:28;10.98;;;9.38;;
16460;SDS011;8341;42.048;24.650;2022-09-09T11:06:59;10.30;;;9.30;;
16460;SDS011;8341;42.048;24.650;2022-09-09T11:09:35;12.85;;;9.02;;
16460;SDS011;8341;42.048;24.650;2022-09-09T11:12:07;10.60;;;8.85;;
16460;SDS011;8341;42.048;24.650;2022-09-09T11:14:41;13.73;;;8.93;;
16460;SDS011;8341;42.048;24.650;2022-09-09T11:17:10;9.88;;;8.98;;
16460;SDS011;8341;42.048;24.650;2022-09-09T11:19:42;11.93;;;9.32;;
16460;SDS011;8341;42.048;24.650;2022-09-09T11:22:15;12.90;;;9.35;;
16460;SDS011;8341;42.048;24.650;2022-09-09T11:24:50;10.82;;;9.30;;
16460;SDS011;8341;42.048;24.650;2022-09-09T11:27:23;11.43;;;9.50;;
16460;SDS011;8341;42.048;24.650;2022-09-09T11:30:03;10.07;;;9.10;;
16460;SDS011;8341;42.048;24.650;2022-09-09T11:32:46;14.20;;;9.25;;
16460;SDS011;8341;42.048;24.650;2022-09-09T11:35:38;11.57;;;10.30;;
16460;SDS011;8341;42.048;24.650;2022-09-09T11:38:25;12.38;;;9.43;;
16460;SDS011;8341;42.048;24.650;2022-09-09T11:40:56;14.55;;;9.48;;
16460;SDS011;8341;42.048;24.650;2022-09-09T11:43:27;10.00;;;9.07;;
16460;SDS011;8341;42.048;24.650;2022-09-09T11:45:59;10.70;;;9.18;;
16460;SDS011;8341;42.048;24.650;2022-09-09T11:48:29;12.32;;;9.15;;
16460;SDS011;8341;42.048;24.650;2022-09-09T11:51:00;11.98;;;9.60;;
16460;SDS011;8341;42.048;24.650;2022-09-09T11:53:30;11.05;;;10.02;;
16460;SDS011;8341;42.048;24.650;2022-09-09T11:56:06;10.50;;;9.50;;
16460;SDS011;8341;42.048;24.650;2022-09-09T11:58:38;13.30;;;9.60;;
16460;SDS011;8341;42.048;24.650;2022-09-09T12:01:16;12.95;;;9.48;;
16460;SDS011;8341;42.048;24.650;2022-09-09T12:04:01;12.23;;;9.45;;
16460;SDS011;8341;42.048;24.650;2022-09-09T12:06:48;11.70;;;10.48;;
16460;SDS011;8341;42.048;24.650;2022-09-09T12:09:27;12.65;;;9.40;;
16460;SDS011;8341;42.048;24.650;2022-09-09T12:12:27;16.60;;;10.32;;
16460;SDS011;8341;42.048;24.650;2022-09-09T12:15:03;10.35;;;9.35;;
16460;SDS011;8341;42.048;24.650;2022-09-09T12:17:48;13.05;;;9.68;;
16460;SDS011;8341;42.048;24.650;2022-09-09T12:20:26;11.23;;;9.45;;
16460;SDS011;8341;42.048;24.650;2022-09-09T12:23:06;12.00;;;9.70;;
16460;SDS011;8341;42.048;24.650;2022-09-09T12:29:06;10.75;;;9.65;;
16460;SDS011;8341;42.048;24.650;2022-09-09T12:31:51;12.02;;;10.05;;
16460;SDS011;8341;42.048;24.650;2022-09-09T12:34:35;11.48;;;10.10;;
16460;SDS011;8341;42.048;24.650;2022-09-09T12:37:13;13.85;;;10.25;;
16460;SDS011;8341;42.048;24.650;2022-09-09T12:39:51;17.20;;;10.20;;
16460;SDS011;8341;42.048;24.650;2022-09-09T12:42:22;16.10;;;9.95;;
16460;SDS011;8341;42.048;24.650;2022-09-09T12:44:51;12.07;;;10.77;;
16460;SDS011;8341;42.048;24.650;2022-09-09T12:47:23;17.52;;;10.90;;
16460;SDS011;8341;42.048;24.650;2022-09-09T12:49:57;14.10;;;11.68;;
16460;SDS011;8341;42.048;24.650;2022-09-09T12:52:28;11.77;;;9.88;;
16460;SDS011;8341;42.048;24.650;2022-09-09T12:55:00;11.38;;;10.27;;
16460;SDS011;8341;42.048;24.650;2022-09-09T12:57:31;15.35;;;10.25;;
16460;SDS011;8341;42.048;24.650;2022-09-09T13:00:11;13.57;;;9.77;;
16460;SDS011;8341;42.048;24.650;2022-09-09T13:02:49;13.60;;;10.48;;
16460;SDS011;8341;42.048;24.650;2022-09-09T13:05:27;12.48;;;10.20;;
16460;SDS011;8341;42.048;24.650;2022-09-09T13:08:14;12.68;;;10.23;;
16460;SDS011;8341;42.048;24.650;2022-09-09T13:10:46;12.27;;;10.40;;
16460;SDS011;8341;42.048;24.650;2022-09-09T13:13:26;11.30;;;9.93;;
16460;SDS011;8341;42.048;24.650;2022-09-09T13:15:58;15.38;;;10.85;;
16460;SDS011;8341;42.048;24.650;2022-09-09T13:18:28;11.75;;;9.80;;
16460;SDS011;8341;42.048;24.650;2022-09-09T13:20:59;11.50;;;10.50;;
16460;SDS011;8341;42.048;24.650;2022-09-09T13:23:28;12.02;;;10.20;;
16460;SDS011;8341;42.048;24.650;2022-09-09T13:25:57;12.30;;;10.35;;
16460;SDS011;8341;42.048;24.650;2022-09-09T13:28:26;11.57;;;10.13;;
16460;SDS011;8341;42.048;24.650;2022-09-09T13:30:57;11.55;;;9.90;;
16460;SDS011;8341;42.048;24.650;2022-09-09T13:33:29;11.20;;;9.98;;
16460;SDS011;8341;42.048;24.650;2022-09-09T13:36:00;12.88;;;9.85;;
16460;SDS011;8341;42.048;24.650;2022-09-09T13:38:31;11.20;;;9.90;;
16460;SDS011;8341;42.048;24.650;2022-09-09T13:41:02;12.50;;;9.65;;
16460;SDS011;8341;42.048;24.650;2022-09-09T13:43:31;10.68;;;9.52;;
16460;SDS011;8341;42.048;24.650;2022-09-09T13:46:03;11.85;;;9.80;;
16460;SDS011;8341;42.048;24.650;2022-09-09T13:48:31;10.98;;;10.02;;
16460;SDS011;8341;42.048;24.650;2022-09-09T13:51:03;13.10;;;9.77;;
16460;SDS011;8341;42.048;24.650;2022-09-09T13:53:31;11.02;;;9.65;;
16460;SDS011;8341;42.048;24.650;2022-09-09T13:55:58;11.48;;;10.27;;
16460;SDS011;8341;42.048;24.650;2022-09-09T13:58:26;12.07;;;9.75;;
16460;SDS011;8341;42.048;24.650;2022-09-09T14:00:53;10.43;;;9.43;;
16460;SDS011;8341;42.048;24.650;2022-09-09T14:03:20;11.88;;;9.20;;
16460;SDS011;8341;42.048;24.650;2022-09-09T14:05:48;13.77;;;9.98;;
16460;SDS011;8341;42.048;24.650;2022-09-09T14:08:19;11.25;;;10.15;;
16460;SDS011;8341;42.048;24.650;2022-09-09T14:10:49;10.55;;;9.45;;
16460;SDS011;8341;42.048;24.650;2022-09-09T14:13:16;10.85;;;9.52;;
16460;SDS011;8341;42.048;24.650;2022-09-09T14:15:43;13.35;;;9.32;;
16460;SDS011;8341;42.048;24.650;2022-09-09T14:18:11;10.02;;;9.02;;
16460;SDS011;8341;42.048;24.650;2022-09-09T14:20:39;12.10;;;9.55;;
16460;SDS011;8341;42.048;24.650;2022-09-09T14:23:09;12.07;;;9.45;;
16460;SDS011;8341;42.048;24.650;2022-09-09T14:25:42;10.70;;;9.52;;
16460;SDS011;8341;42.048;24.650;2022-09-09T14:28:10;12.80;;;9.23;;
16460;SDS011;8341;42.048;24.650;2022-09-09T14:30:39;10.25;;;8.95;;
16460;SDS011;8341;42.048;24.650;2022-09-09T14:33:08;12.38;;;9.20;;
16460;SDS011;8341;42.048;24.650;2022-09-09T14:35:37;12.85;;;9.10;;
16460;SDS011;8341;42.048;24.650;2022-09-09T14:38:06;10.73;;;9.63;;
16460;SDS011;8341;42.048;24.650;2022-09-09T14:40:33;9.63;;;8.73;;
16460;SDS011;8341;42.048;24.650;2022-09-09T14:43:02;10.18;;;8.60;;
16460;SDS011;8341;42.048;24.650;2022-09-09T14:45:30;9.73;;;8.52;;
16460;SDS011;8341;42.048;24.650;2022-09-09T14:47:57;9.93;;;8.93;;
16460;SDS011;8341;42.048;24.650;2022-09-09T14:50:24;10.82;;;9.07;;
16460;SDS011;8341;42.048;24.650;2022-09-09T14:52:51;9.05;;;7.95;;
16460;SDS011;8341;42.048;24.650;2022-09-09T14:55:18;9.02;;;8.15;;
16460;SDS011;8341;42.048;24.650;2022-09-09T14:57:46;9.65;;;8.45;;
16460;SDS011;8341;42.048;24.650;2022-09-09T15:00:15;9.65;;;8.30;;
16460;SDS011;8341;42.048;24.650;2022-09-09T15:02:42;12.52;;;8.57;;
16460;SDS011;8341;42.048;24.650;2022-09-09T15:05:09;10.65;;;8.88;;
16460;SDS011;8341;42.048;24.650;2022-09-09T15:07:36;9.25;;;8.30;;
16460;SDS011;8341;42.048;24.650;2022-09-09T15:10:03;10.07;;;8.15;;
16460;SDS011;8341;42.048;24.650;2022-09-09T15:12:31;9.20;;;8.27;;
16460;SDS011;8341;42.048;24.650;2022-09-09T15:15:00;9.60;;;8.02;;
16460;SDS011;8341;42.048;24.650;2022-09-09T15:17:29;8.95;;;8.05;;
16460;SDS011;8341;42.048;24.650;2022-09-09T15:19:56;9.27;;;8.13;;
16460;SDS011;8341;42.048;24.650;2022-09-09T15:22:24;11.32;;;8.25;;
16460;SDS011;8341;42.048;24.650;2022-09-09T15:24:51;9.80;;;8.80;;
16460;SDS011;8341;42.048;24.650;2022-09-09T15:27:18;13.40;;;12.10;;
16460;SDS011;8341;42.048;24.650;2022-09-09T15:29:45;16.35;;;11.52;;
16460;SDS011;8341;42.048;24.650;2022-09-09T15:32:12;10.40;;;9.23;;
16460;SDS011;8341;42.048;24.650;2022-09-09T15:34:40;10.18;;;8.93;;